Latimer, Iowa
Current Conditions -  °F | °C
As of 3:35 AM on Friday 24 Oct 2014 (Local Time) from KCAV Reporting Station
Clear Clear  
Wind Chill: 45°   Ceiling: Unl
Heat Index: 48°   Visibility: 8mi
Dew Point: 48°   Wind: 7mph
Humidity: 100%   Direction: 170°S
Pressure: 29.99"   Gusts: NA
Location:  42.76°N, 93.37°W
Report Text: KCAV 240835Z AUTO 17006KT 8SM CLR 09/09 A2999 RMK AO2
Loading
Personal Weather Stations






























Interactive Weather Map
Tropical Storm Tracking
New forecast layout! Learn more

10-Day Weather Forecast

Advertisements
Track Severe Weather on mobile